メインページ
METAR-TAF:

METAR-TAF

空港 :

ポイント・ヴェレ空港

フツナ, フランス

緯度: 14-19S, 経度: 178-07W, 海抜: 6m

METAR: 見つかりません

時間: 17:14 (05:14 UTC)

予報

当レポートは6時間14分前の23:00(UTC)に作成
予報は20日の 00時(UTC)から 20日の 24時(UTC)まで有効
の風 10kt
視程10km以上
高度2500ftの雲は散在している
高度4000ftの雲は散在している
20日の 12時(UTC)から 20日の 18時(UTC)まで一時的に
にわか雨

TAF: NLWF 192300Z 2000/2024 09010KT 9999 SCT025 SCT040 TEMPO 2012/2018 SHRA

4,000以上の空港の気象観測と天気予報(METAR報とTAF報)

利用可能な観測所は地図上に黄色い丸と赤い丸で示す。

丸の上にカーソルを重ねると観測所名を参照できる。

次にクリックすると気象観測と天気予報を参照できる。

マップの切り替え:黒色「×」印の緑ボタンをクリックして拡大、「-」印の緑ボタンをクリックして縮小、緑色の三角印をクリックして隣りの地図に切り替え


METAR-TAF: